createdAt,value
2016-11-29T00:00:55.210Z,0
2016-11-29T00:01:55.853Z,0
2016-11-29T00:02:56.481Z,0
2016-11-29T00:03:57.113Z,0
2016-11-29T00:04:57.737Z,0
2016-11-29T00:05:58.343Z,0
2016-11-29T00:06:58.970Z,0
2016-11-29T00:07:59.591Z,0
2016-11-29T00:09:00.257Z,0
2016-11-29T00:10:00.868Z,0
2016-11-29T00:11:01.498Z,0
2016-11-29T00:12:02.137Z,0
2016-11-29T00:13:02.793Z,0
2016-11-29T00:14:03.419Z,0
2016-11-29T00:15:04.111Z,0
2016-11-29T00:16:04.737Z,0
2016-11-29T00:17:05.439Z,0
2016-11-29T00:18:06.078Z,0
2016-11-29T00:19:06.707Z,0
2016-11-29T00:20:07.326Z,0
2016-11-29T00:21:07.973Z,0
2016-11-29T00:22:08.712Z,0
2016-11-29T00:23:09.325Z,0
2016-11-29T00:24:09.948Z,0
2016-11-29T00:25:10.576Z,0
2016-11-29T00:26:11.205Z,0
2016-11-29T00:27:11.827Z,0
2016-11-29T00:28:12.453Z,0
2016-11-29T00:29:13.058Z,0
2016-11-29T00:30:13.673Z,0
2016-11-29T00:31:14.301Z,0
2016-11-29T00:32:14.973Z,0
2016-11-29T00:33:15.638Z,0
2016-11-29T00:34:16.257Z,0
2016-11-29T00:35:16.900Z,0
2016-11-29T00:36:17.530Z,0
2016-11-29T00:37:18.150Z,0
2016-11-29T00:38:18.793Z,0
2016-11-29T00:39:19.436Z,0
2016-11-29T00:40:20.086Z,0
2016-11-29T00:41:20.726Z,0
2016-11-29T00:42:21.366Z,0
2016-11-29T00:43:22.028Z,0
2016-11-29T00:44:22.656Z,0
2016-11-29T00:45:23.352Z,0
2016-11-29T00:46:24.007Z,0
2016-11-29T00:47:24.641Z,0
2016-11-29T00:48:25.275Z,0
2016-11-29T00:49:25.885Z,0
2016-11-29T00:50:26.505Z,0
2016-11-29T00:51:27.135Z,0
2016-11-29T00:52:27.765Z,0
2016-11-29T00:53:28.401Z,0
2016-11-29T00:54:29.047Z,0
2016-11-29T00:55:29.691Z,0
2016-11-29T00:56:30.314Z,0
2016-11-29T00:57:30.946Z,0
2016-11-29T00:58:31.572Z,0
2016-11-29T00:59:32.200Z,0
2016-11-29T01:00:32.831Z,0
2016-11-29T01:01:33.467Z,0
2016-11-29T01:02:34.073Z,0
2016-11-29T01:03:34.704Z,0
2016-11-29T01:04:35.327Z,0
2016-11-29T01:05:35.963Z,0
2016-11-29T01:06:36.592Z,0
2016-11-29T01:07:37.216Z,0
2016-11-29T01:08:37.842Z,0
2016-11-29T01:09:38.471Z,0
2016-11-29T01:10:39.142Z,0
2016-11-29T01:11:39.754Z,0
2016-11-29T01:12:40.381Z,0
2016-11-29T01:13:41.015Z,0
2016-11-29T01:14:41.659Z,0
2016-11-29T01:15:42.305Z,0
2016-11-29T01:16:42.944Z,0
2016-11-29T01:17:43.578Z,0
2016-11-29T01:18:44.204Z,0
2016-11-29T01:19:44.820Z,0
2016-11-29T01:20:45.458Z,0
2016-11-29T01:21:46.095Z,0
2016-11-29T01:22:46.704Z,0
2016-11-29T01:23:47.333Z,0
2016-11-29T01:24:47.992Z,0
2016-11-29T01:25:48.627Z,0
2016-11-29T01:26:49.277Z,0
2016-11-29T01:27:49.977Z,0
2016-11-29T01:28:50.606Z,0
2016-11-29T01:29:51.253Z,0
2016-11-29T01:30:51.894Z,0
2016-11-29T01:31:52.517Z,0
2016-11-29T01:32:53.151Z,0
2016-11-29T01:33:53.825Z,0
2016-11-29T01:34:54.454Z,0
2016-11-29T01:35:55.101Z,0
2016-11-29T01:36:55.735Z,0
2016-11-29T01:37:56.367Z,0
2016-11-29T01:38:57.007Z,0
2016-11-29T01:39:57.637Z,0
2016-11-29T01:40:58.283Z,0
2016-11-29T01:41:58.916Z,0
2016-11-29T01:42:59.551Z,0
2016-11-29T01:44:00.182Z,0
2016-11-29T01:45:00.824Z,0
2016-11-29T01:46:01.461Z,0
2016-11-29T01:47:02.092Z,0
2016-11-29T01:48:02.745Z,0
2016-11-29T01:49:03.378Z,0
2016-11-29T01:50:03.995Z,0
2016-11-29T01:51:04.627Z,0
2016-11-29T01:52:05.259Z,0
2016-11-29T01:53:05.889Z,0
2016-11-29T01:54:06.553Z,0
2016-11-29T01:55:07.210Z,0
2016-11-29T01:56:07.826Z,0
2016-11-29T01:57:08.468Z,0
2016-11-29T01:58:09.090Z,0
2016-11-29T01:59:09.748Z,0
2016-11-29T02:00:10.368Z,0
2016-11-29T02:01:10.966Z,0
2016-11-29T02:02:11.583Z,0
2016-11-29T02:03:12.199Z,0
2016-11-29T02:04:12.817Z,0
2016-11-29T02:05:13.422Z,0
2016-11-29T02:06:14.083Z,0
2016-11-29T02:07:14.701Z,0
2016-11-29T02:08:15.326Z,0
2016-11-29T02:09:15.929Z,0
2016-11-29T02:10:16.547Z,0
2016-11-29T02:11:17.177Z,0
2016-11-29T02:12:17.802Z,0
2016-11-29T02:13:18.407Z,0
2016-11-29T02:14:19.074Z,0
2016-11-29T02:15:19.726Z,0
2016-11-29T02:16:20.334Z,0
2016-11-29T02:17:21.014Z,0
2016-11-29T02:18:21.638Z,0
2016-11-29T02:19:22.961Z,0
2016-11-29T02:20:23.575Z,0
2016-11-29T02:21:24.189Z,0
2016-11-29T02:22:24.810Z,0
2016-11-29T02:23:25.437Z,0
2016-11-29T02:24:26.079Z,0
2016-11-29T02:25:26.740Z,0
2016-11-29T02:26:27.376Z,0
2016-11-29T02:27:28.004Z,0
2016-11-29T02:28:28.667Z,0
2016-11-29T02:29:29.277Z,0
2016-11-29T02:30:29.922Z,0
2016-11-29T02:31:30.575Z,0
2016-11-29T02:32:31.199Z,0
2016-11-29T02:33:31.816Z,0
2016-11-29T02:34:32.505Z,0
2016-11-29T02:35:33.129Z,0
2016-11-29T02:36:33.765Z,0
2016-11-29T02:37:34.409Z,0
2016-11-29T02:38:35.083Z,0
2016-11-29T02:39:35.694Z,0
2016-11-29T02:40:36.304Z,0
2016-11-29T02:41:36.922Z,0
2016-11-29T02:42:37.541Z,0
2016-11-29T02:43:38.191Z,0
2016-11-29T02:44:38.816Z,0
2016-11-29T02:45:39.438Z,0
2016-11-29T02:46:40.066Z,0
2016-11-29T02:47:40.690Z,0
2016-11-29T02:48:41.388Z,0
2016-11-29T02:49:41.995Z,0
2016-11-29T02:50:42.606Z,0
2016-11-29T02:51:43.229Z,0
2016-11-29T02:52:43.879Z,0
2016-11-29T02:53:44.487Z,0
2016-11-29T02:54:45.116Z,0
2016-11-29T02:55:45.716Z,0
2016-11-29T02:56:46.330Z,0
2016-11-29T02:57:46.935Z,0
2016-11-29T02:58:47.588Z,0
2016-11-29T02:59:48.222Z,0
2016-11-29T03:00:48.839Z,0
2016-11-29T03:01:49.452Z,0
2016-11-29T03:02:50.072Z,0
2016-11-29T03:03:50.721Z,0
2016-11-29T03:04:51.329Z,0
2016-11-29T03:05:51.947Z,0
2016-11-29T03:06:52.579Z,0
2016-11-29T03:07:53.198Z,0
2016-11-29T03:08:53.863Z,0
2016-11-29T03:09:54.492Z,0
2016-11-29T03:10:55.119Z,0
2016-11-29T03:11:55.763Z,0
2016-11-29T03:12:56.389Z,0
2016-11-29T03:13:57.003Z,0
2016-11-29T03:14:57.629Z,0
2016-11-29T03:15:58.264Z,0
2016-11-29T03:16:58.999Z,0
2016-11-29T03:17:59.589Z,0
2016-11-29T03:19:00.241Z,0
2016-11-29T03:20:00.859Z,0
2016-11-29T03:21:01.466Z,0
2016-11-29T03:22:02.083Z,0
2016-11-29T03:23:02.748Z,0
2016-11-29T03:24:03.374Z,0
2016-11-29T03:25:03.988Z,0
2016-11-29T03:26:04.613Z,0
2016-11-29T03:27:05.247Z,0
2016-11-29T03:28:05.863Z,0
2016-11-29T03:29:06.483Z,0
2016-11-29T03:30:07.151Z,0
2016-11-29T03:31:07.787Z,0
2016-11-29T03:32:08.458Z,0
2016-11-29T03:33:09.067Z,0
2016-11-29T03:34:09.706Z,0
2016-11-29T03:35:10.301Z,0
2016-11-29T03:36:10.933Z,0
2016-11-29T03:37:11.536Z,0
2016-11-29T03:38:12.189Z,0
2016-11-29T03:39:12.787Z,0
2016-11-29T03:40:13.415Z,0
2016-11-29T03:41:14.035Z,0
2016-11-29T03:42:14.649Z,0
2016-11-29T03:43:15.281Z,0
2016-11-29T03:44:15.899Z,0
2016-11-29T03:45:16.526Z,0
2016-11-29T03:46:17.140Z,0
2016-11-29T03:47:17.770Z,0
2016-11-29T03:48:18.381Z,0
2016-11-29T03:49:19.003Z,0
2016-11-29T03:50:19.633Z,0
2016-11-29T03:51:20.258Z,0
2016-11-29T03:52:20.877Z,0
2016-11-29T03:53:21.486Z,0
2016-11-29T03:54:22.106Z,0
2016-11-29T03:55:22.724Z,0
2016-11-29T03:56:23.364Z,0
2016-11-29T03:57:23.972Z,0
2016-11-29T03:58:24.592Z,0
2016-11-29T03:59:25.215Z,0
2016-11-29T04:00:25.845Z,0
2016-11-29T04:01:26.516Z,0
2016-11-29T04:02:27.136Z,0
2016-11-29T04:03:27.751Z,0
2016-11-29T04:04:28.375Z,0
2016-11-29T04:05:28.999Z,0
2016-11-29T04:06:29.640Z,0
2016-11-29T04:07:30.272Z,0
2016-11-29T04:08:30.880Z,0
2016-11-29T04:09:31.546Z,0
2016-11-29T04:10:32.153Z,0
2016-11-29T04:11:32.782Z,0
2016-11-29T04:12:33.388Z,0
2016-11-29T04:13:34.017Z,0
2016-11-29T04:14:34.638Z,0
2016-11-29T04:15:35.258Z,0
2016-11-29T04:16:35.866Z,0
2016-11-29T04:17:36.557Z,0
2016-11-29T04:18:37.156Z,0
2016-11-29T04:19:37.782Z,0
2016-11-29T04:20:38.421Z,0
2016-11-29T04:21:39.063Z,0
2016-11-29T04:22:39.691Z,0
2016-11-29T04:23:40.322Z,0
2016-11-29T04:24:40.945Z,0
2016-11-29T04:25:41.598Z,0
2016-11-29T04:26:42.245Z,0
2016-11-29T04:27:42.887Z,0
2016-11-29T04:28:43.502Z,0
2016-11-29T04:29:44.119Z,0
2016-11-29T04:30:44.738Z,0
2016-11-29T04:31:45.357Z,0
2016-11-29T04:32:46.030Z,0
2016-11-29T04:33:46.646Z,0
2016-11-29T04:34:47.262Z,0
2016-11-29T04:35:47.877Z,0
2016-11-29T04:36:48.527Z,0
2016-11-29T04:37:49.176Z,0
2016-11-29T04:38:49.843Z,0
2016-11-29T04:39:50.458Z,0
2016-11-29T04:40:51.082Z,0
2016-11-29T04:41:51.711Z,0
2016-11-29T04:42:52.368Z,0
2016-11-29T04:43:52.964Z,0
2016-11-29T04:44:53.584Z,0
2016-11-29T04:45:54.211Z,0
2016-11-29T04:46:54.845Z,0
2016-11-29T04:47:55.464Z,0
2016-11-29T04:48:56.079Z,0
2016-11-29T04:49:56.714Z,0
2016-11-29T04:50:57.320Z,0
2016-11-29T04:51:57.923Z,0
2016-11-29T04:52:58.564Z,0
2016-11-29T04:53:59.167Z,0
2016-11-29T04:54:59.802Z,0
2016-11-29T04:56:00.428Z,0
2016-11-29T04:57:01.033Z,0
2016-11-29T04:58:01.650Z,0
2016-11-29T04:59:02.273Z,0
2016-11-29T05:00:02.888Z,0
2016-11-29T05:01:03.533Z,0
2016-11-29T05:02:04.163Z,0
2016-11-29T05:03:04.779Z,0
2016-11-29T05:04:05.418Z,0
2016-11-29T05:05:06.034Z,0
2016-11-29T05:06:06.701Z,0
2016-11-29T05:07:07.378Z,0
2016-11-29T05:08:07.982Z,0
2016-11-29T05:09:08.601Z,0
2016-11-29T05:10:09.215Z,0
2016-11-29T05:11:09.834Z,0
2016-11-29T05:12:10.465Z,0
2016-11-29T05:13:11.073Z,0
2016-11-29T05:14:11.695Z,0
2016-11-29T05:15:12.325Z,0
2016-11-29T05:16:12.985Z,0
2016-11-29T05:17:13.622Z,0
2016-11-29T05:18:14.236Z,0
2016-11-29T05:19:14.859Z,0
2016-11-29T05:20:15.472Z,0
2016-11-29T05:21:16.103Z,0
2016-11-29T05:22:16.712Z,0
2016-11-29T05:23:17.334Z,0
2016-11-29T05:24:17.957Z,0
2016-11-29T05:25:18.583Z,0
2016-11-29T05:26:19.201Z,0
2016-11-29T05:27:19.836Z,0
2016-11-29T05:28:20.430Z,0
2016-11-29T05:29:21.057Z,0
2016-11-29T05:30:21.734Z,0
2016-11-29T05:31:22.377Z,0
2016-11-29T05:32:23.042Z,0
2016-11-29T05:33:23.664Z,0
2016-11-29T05:34:24.285Z,0
2016-11-29T05:35:24.919Z,0
2016-11-29T05:36:25.538Z,0
2016-11-29T05:37:26.192Z,0
2016-11-29T05:38:26.835Z,0
2016-11-29T05:39:27.481Z,0
2016-11-29T05:40:28.106Z,0
2016-11-29T05:41:28.720Z,0
2016-11-29T05:42:29.325Z,0
2016-11-29T05:43:29.945Z,0
2016-11-29T05:44:30.587Z,0
2016-11-29T05:45:31.207Z,0
2016-11-29T05:46:31.823Z,0
2016-11-29T05:47:32.434Z,0
2016-11-29T05:48:33.047Z,0
2016-11-29T05:49:33.662Z,0
2016-11-29T05:50:34.270Z,0
2016-11-29T05:51:34.880Z,0
2016-11-29T05:52:35.503Z,0
2016-11-29T05:53:36.132Z,0
2016-11-29T05:54:36.772Z,0
2016-11-29T05:55:37.388Z,0
2016-11-29T05:56:38.004Z,0
2016-11-29T05:57:38.642Z,0
2016-11-29T05:58:39.272Z,0
2016-11-29T05:59:39.901Z,0
2016-11-29T06:00:40.517Z,0
2016-11-29T06:01:41.146Z,0
2016-11-29T06:02:41.767Z,0
2016-11-29T06:03:42.389Z,0
2016-11-29T06:04:43.000Z,0
2016-11-29T06:05:43.625Z,0
2016-11-29T06:06:44.257Z,0
2016-11-29T06:07:44.882Z,0
2016-11-29T06:08:45.515Z,0
2016-11-29T06:09:46.123Z,0
2016-11-29T06:10:46.737Z,0
2016-11-29T06:11:47.372Z,0
2016-11-29T06:12:48.146Z,0
2016-11-29T06:13:48.768Z,0
2016-11-29T06:14:49.389Z,0
2016-11-29T06:15:49.993Z,0
2016-11-29T06:16:50.618Z,0
2016-11-29T06:17:51.250Z,0
2016-11-29T06:18:51.867Z,0
2016-11-29T06:19:52.485Z,0
2016-11-29T06:20:53.103Z,0
2016-11-29T06:21:53.749Z,0
2016-11-29T06:22:54.534Z,0
2016-11-29T06:23:55.113Z,0
2016-11-29T06:24:55.719Z,0
2016-11-29T06:25:56.353Z,0
2016-11-29T06:26:56.965Z,0
2016-11-29T06:27:57.583Z,0
2016-11-29T06:28:58.219Z,0
2016-11-29T06:29:58.833Z,0
2016-11-29T06:30:59.471Z,0
2016-11-29T06:32:00.105Z,0
2016-11-29T06:33:00.726Z,0
2016-11-29T06:34:01.338Z,0
2016-11-29T06:35:01.989Z,0
2016-11-29T06:36:02.619Z,0
2016-11-29T06:37:03.244Z,0
2016-11-29T06:38:03.871Z,0
2016-11-29T06:39:04.510Z,0
2016-11-29T06:40:05.137Z,0
2016-11-29T06:41:05.759Z,0
2016-11-29T06:42:06.380Z,0
2016-11-29T06:43:07.002Z,0
2016-11-29T06:44:07.623Z,0
2016-11-29T06:45:08.243Z,0
2016-11-29T06:46:08.887Z,0
2016-11-29T06:47:09.510Z,0
2016-11-29T06:48:10.138Z,0
2016-11-29T06:49:10.770Z,0
2016-11-29T06:50:11.402Z,0
2016-11-29T06:51:12.118Z,0
2016-11-29T06:52:12.750Z,0
2016-11-29T06:53:13.405Z,0
2016-11-29T06:54:14.026Z,0
2016-11-29T06:55:14.653Z,0
2016-11-29T06:56:15.324Z,0
2016-11-29T06:57:15.963Z,0
2016-11-29T06:58:16.596Z,5
2016-11-29T06:59:17.221Z,5
2016-11-29T07:00:17.851Z,5
2016-11-29T07:01:18.471Z,5
2016-11-29T07:02:19.087Z,5
2016-11-29T07:03:19.710Z,5
2016-11-29T07:04:20.346Z,5
2016-11-29T07:05:20.956Z,5
2016-11-29T07:06:21.596Z,10
2016-11-29T07:07:22.205Z,10
2016-11-29T07:08:22.825Z,10
2016-11-29T07:09:23.434Z,10
2016-11-29T07:10:24.058Z,10
2016-11-29T07:11:24.670Z,10
2016-11-29T07:12:25.284Z,15
2016-11-29T07:13:25.903Z,15
2016-11-29T07:14:26.527Z,15
2016-11-29T07:15:27.147Z,15
2016-11-29T07:16:27.765Z,20
2016-11-29T07:17:28.388Z,20
2016-11-29T07:18:29.009Z,20
2016-11-29T07:19:29.629Z,20
2016-11-29T07:20:30.250Z,25
2016-11-29T07:21:30.881Z,25
2016-11-29T07:22:31.511Z,25
2016-11-29T07:23:32.125Z,25
2016-11-29T07:24:32.741Z,25
2016-11-29T07:25:33.398Z,30
2016-11-29T07:26:34.062Z,30
2016-11-29T07:27:34.768Z,30
2016-11-29T07:28:35.377Z,35
2016-11-29T07:29:36.003Z,35
2016-11-29T07:30:36.668Z,35
2016-11-29T07:31:37.304Z,35
2016-11-29T07:32:37.957Z,40
2016-11-29T07:33:38.609Z,40
2016-11-29T07:34:39.227Z,40
2016-11-29T07:35:39.847Z,40
2016-11-29T07:36:40.561Z,45
2016-11-29T07:37:41.206Z,45
2016-11-29T07:38:41.827Z,45
2016-11-29T07:39:42.431Z,45
2016-11-29T07:40:43.075Z,50
2016-11-29T07:41:43.720Z,50
2016-11-29T07:42:44.369Z,50
2016-11-29T07:43:44.986Z,50
2016-11-29T07:44:45.619Z,55
2016-11-29T07:45:46.259Z,55
2016-11-29T07:46:46.915Z,55
2016-11-29T07:47:47.576Z,55
2016-11-29T07:48:48.210Z,60
2016-11-29T07:49:49.144Z,60
2016-11-29T07:50:49.671Z,60
2016-11-29T07:51:50.315Z,65
2016-11-29T07:52:50.944Z,65
2016-11-29T07:53:51.671Z,65
2016-11-29T07:54:52.404Z,65
2016-11-29T07:55:53.115Z,70
2016-11-29T07:56:53.802Z,70
2016-11-29T07:57:54.510Z,70
2016-11-29T07:58:55.178Z,70
2016-11-29T07:59:55.810Z,75
2016-11-29T08:00:56.418Z,75
2016-11-29T08:01:57.075Z,75
2016-11-29T08:02:57.708Z,75
2016-11-29T08:03:58.412Z,80
2016-11-29T08:04:59.008Z,80
2016-11-29T08:05:59.641Z,80
2016-11-29T08:07:00.264Z,85
2016-11-29T08:08:00.947Z,90
2016-11-29T08:09:01.586Z,90
2016-11-29T08:10:02.314Z,90
2016-11-29T08:11:02.935Z,95
2016-11-29T08:12:03.567Z,95
2016-11-29T08:13:04.201Z,95
2016-11-29T08:14:04.860Z,95
2016-11-29T08:15:05.555Z,95
2016-11-29T08:16:06.198Z,95
2016-11-29T08:17:06.833Z,95
2016-11-29T08:18:07.459Z,95
2016-11-29T08:19:08.084Z,100
2016-11-29T08:20:08.815Z,100
2016-11-29T08:21:09.513Z,105
2016-11-29T08:22:10.183Z,105
2016-11-29T08:23:10.924Z,110
2016-11-29T08:24:11.524Z,105
2016-11-29T08:25:12.203Z,105
2016-11-29T08:26:12.847Z,120
2016-11-29T08:27:13.485Z,150
2016-11-29T08:28:14.140Z,170
2016-11-29T08:29:14.801Z,185
2016-11-29T08:30:15.431Z,190
2016-11-29T08:31:16.116Z,190
2016-11-29T08:32:16.754Z,195
2016-11-29T08:33:17.401Z,200
2016-11-29T08:34:18.036Z,215
2016-11-29T08:35:18.658Z,230
2016-11-29T08:36:19.269Z,225
2016-11-29T08:37:19.895Z,160
2016-11-29T08:38:20.510Z,115
2016-11-29T08:39:21.185Z,115
2016-11-29T08:40:21.867Z,115
2016-11-29T08:41:22.511Z,115
2016-11-29T08:42:23.190Z,120
2016-11-29T08:43:23.891Z,120
2016-11-29T08:44:24.576Z,120
2016-11-29T08:45:25.190Z,120
2016-11-29T08:46:25.814Z,120
2016-11-29T08:47:26.466Z,120
2016-11-29T08:48:27.143Z,120
2016-11-29T08:49:27.802Z,120
2016-11-29T08:50:28.470Z,120
2016-11-29T08:51:29.100Z,125
2016-11-29T08:52:29.725Z,125
2016-11-29T08:53:30.359Z,125
2016-11-29T08:54:31.000Z,125
2016-11-29T08:55:31.690Z,130
2016-11-29T08:56:32.340Z,130
2016-11-29T08:57:32.976Z,130
2016-11-29T08:58:33.621Z,130
2016-11-29T08:59:34.257Z,130
2016-11-29T09:00:34.913Z,135
2016-11-29T09:01:35.636Z,135
2016-11-29T09:02:36.217Z,135
2016-11-29T09:03:36.858Z,135
2016-11-29T09:04:37.474Z,135
2016-11-29T09:05:38.107Z,135
2016-11-29T09:06:38.786Z,135
2016-11-29T09:07:39.418Z,135
2016-11-29T09:08:40.191Z,135
2016-11-29T09:09:40.866Z,135
2016-11-29T09:10:41.493Z,135
2016-11-29T09:11:42.130Z,135
2016-11-29T09:12:42.755Z,135
2016-11-29T09:13:43.402Z,135
2016-11-29T09:14:44.028Z,135
2016-11-29T09:15:44.686Z,135
2016-11-29T09:16:45.316Z,135
2016-11-29T09:17:46.050Z,130
2016-11-29T09:18:46.725Z,130
2016-11-29T09:19:47.512Z,130
2016-11-29T09:20:48.213Z,130
2016-11-29T09:21:48.913Z,130
2016-11-29T09:22:49.569Z,130
2016-11-29T09:23:50.214Z,130
2016-11-29T09:24:50.884Z,130
2016-11-29T09:25:51.560Z,135
2016-11-29T09:26:52.219Z,130
2016-11-29T09:27:52.938Z,130
2016-11-29T09:28:53.583Z,130
2016-11-29T09:29:54.365Z,130
2016-11-29T09:30:55.090Z,130
2016-11-29T09:31:55.727Z,130
2016-11-29T09:32:56.408Z,130
2016-11-29T09:33:57.044Z,130
2016-11-29T09:34:57.683Z,130
2016-11-29T09:35:58.332Z,130
2016-11-29T09:36:58.973Z,135
2016-11-29T09:37:59.605Z,135
2016-11-29T09:39:00.340Z,135
2016-11-29T09:40:01.020Z,135
2016-11-29T09:41:01.743Z,135
2016-11-29T09:42:02.411Z,135
2016-11-29T09:43:03.065Z,135
2016-11-29T09:44:03.707Z,135
2016-11-29T09:45:04.376Z,135
2016-11-29T09:46:05.098Z,135
2016-11-29T09:47:05.740Z,135
2016-11-29T09:48:06.413Z,135
2016-11-29T09:49:07.060Z,135
2016-11-29T09:50:07.725Z,135
2016-11-29T09:51:08.391Z,140
2016-11-29T09:52:09.065Z,140
2016-11-29T09:53:09.766Z,140
2016-11-29T09:54:10.508Z,140
2016-11-29T09:55:11.214Z,135
2016-11-29T09:56:11.944Z,140
2016-11-29T09:57:12.616Z,135
2016-11-29T09:58:13.243Z,135
2016-11-29T09:59:13.940Z,140
2016-11-29T10:00:14.572Z,140
2016-11-29T10:01:15.290Z,135
2016-11-29T10:02:15.980Z,140
2016-11-29T10:03:16.598Z,140
2016-11-29T10:04:17.231Z,140
2016-11-29T10:05:17.928Z,135
2016-11-29T10:06:18.586Z,135
2016-11-29T10:07:19.310Z,140
2016-11-29T10:08:20.003Z,135
2016-11-29T10:09:20.667Z,135
2016-11-29T10:10:21.295Z,135
2016-11-29T10:11:21.912Z,140
2016-11-29T10:12:22.581Z,135
2016-11-29T10:13:23.335Z,140
2016-11-29T10:14:23.921Z,135
2016-11-29T10:15:24.564Z,135
2016-11-29T10:16:25.210Z,135
2016-11-29T10:17:25.854Z,135
2016-11-29T10:18:26.473Z,140
2016-11-29T10:19:27.133Z,135
2016-11-29T10:20:27.804Z,135
2016-11-29T10:21:28.506Z,135
2016-11-29T10:22:29.178Z,135
2016-11-29T10:23:29.984Z,135
2016-11-29T10:24:30.686Z,135
2016-11-29T10:25:31.383Z,135
2016-11-29T10:26:32.062Z,135
2016-11-29T10:27:32.762Z,135
2016-11-29T10:28:33.499Z,135
2016-11-29T10:29:34.259Z,135
2016-11-29T10:30:34.944Z,135
2016-11-29T10:31:35.669Z,135
2016-11-29T10:32:36.338Z,135
2016-11-29T10:33:37.003Z,135
2016-11-29T10:34:37.670Z,135
2016-11-29T10:35:38.392Z,135
2016-11-29T10:36:39.077Z,135
2016-11-29T10:37:39.821Z,135
2016-11-29T10:38:40.491Z,135
2016-11-29T10:39:41.187Z,135
2016-11-29T10:40:41.823Z,135
2016-11-29T10:41:42.477Z,135
2016-11-29T10:42:43.159Z,135
2016-11-29T10:43:43.898Z,135
2016-11-29T10:44:44.740Z,135
2016-11-29T10:45:45.466Z,135
2016-11-29T10:46:46.180Z,135
2016-11-29T10:47:46.923Z,135
2016-11-29T10:48:47.713Z,135
2016-11-29T10:49:48.489Z,135
2016-11-29T10:50:49.168Z,135
2016-11-29T10:51:50.012Z,135
2016-11-29T10:52:50.625Z,135
2016-11-29T10:53:51.261Z,135
2016-11-29T10:54:52.057Z,135
2016-11-29T10:55:52.776Z,135
2016-11-29T10:56:53.470Z,135
2016-11-29T10:57:54.254Z,135
2016-11-29T10:58:54.886Z,135
2016-11-29T10:59:55.624Z,135
2016-11-29T11:00:56.311Z,135
2016-11-29T11:01:56.953Z,135
2016-11-29T11:02:57.606Z,135
2016-11-29T11:03:58.340Z,135
2016-11-29T11:04:59.004Z,135
2016-11-29T11:05:59.667Z,135
2016-11-29T11:07:00.348Z,135
2016-11-29T11:08:01.079Z,135
2016-11-29T11:09:01.713Z,135
2016-11-29T11:10:02.362Z,135
2016-11-29T11:11:03.015Z,130
2016-11-29T11:12:03.729Z,130
2016-11-29T11:13:04.394Z,130
2016-11-29T11:14:05.048Z,130
2016-11-29T11:15:05.708Z,130
2016-11-29T11:16:06.368Z,130
2016-11-29T11:17:07.067Z,130
2016-11-29T11:18:07.854Z,130
2016-11-29T11:19:08.672Z,130
2016-11-29T11:20:09.423Z,130
2016-11-29T11:21:10.051Z,130
2016-11-29T11:22:10.677Z,130
2016-11-29T11:23:11.324Z,130
2016-11-29T11:24:11.968Z,130
2016-11-29T11:25:12.596Z,130
2016-11-29T11:26:13.297Z,130
2016-11-29T11:27:14.091Z,130
2016-11-29T11:28:14.687Z,130
2016-11-29T11:29:15.405Z,135
2016-11-29T11:30:16.051Z,135
2016-11-29T11:31:16.758Z,135
2016-11-29T11:32:17.398Z,135
2016-11-29T11:33:18.056Z,135
2016-11-29T11:34:18.735Z,135
2016-11-29T11:35:19.387Z,130
2016-11-29T11:36:20.071Z,130
2016-11-29T11:37:20.771Z,130
2016-11-29T11:38:21.423Z,130
2016-11-29T11:39:22.109Z,130
2016-11-29T11:40:22.828Z,130
2016-11-29T11:41:23.484Z,130
2016-11-29T11:42:24.142Z,130
2016-11-29T11:43:24.903Z,125
2016-11-29T11:44:25.551Z,125
2016-11-29T11:45:26.193Z,125
2016-11-29T11:46:26.838Z,125
2016-11-29T11:47:27.525Z,125
2016-11-29T11:48:28.108Z,125
2016-11-29T11:49:28.749Z,125
2016-11-29T11:50:29.440Z,125
2016-11-29T11:51:30.101Z,125
2016-11-29T11:52:30.799Z,125
2016-11-29T11:53:31.443Z,125
2016-11-29T11:54:32.078Z,125
2016-11-29T11:55:32.695Z,125
2016-11-29T11:56:33.336Z,125
2016-11-29T11:57:34.119Z,125
2016-11-29T11:58:34.756Z,125
2016-11-29T11:59:35.384Z,125
2016-11-29T12:00:36.030Z,125
2016-11-29T12:01:36.675Z,125
2016-11-29T12:02:37.350Z,125
2016-11-29T12:03:38.009Z,125
2016-11-29T12:04:38.672Z,125
2016-11-29T12:05:39.431Z,125
2016-11-29T12:06:40.148Z,125
2016-11-29T12:07:40.833Z,120
2016-11-29T12:08:41.487Z,120
2016-11-29T12:09:42.169Z,120
2016-11-29T12:10:42.788Z,120
2016-11-29T12:11:43.432Z,120
2016-11-29T12:12:44.136Z,120
2016-11-29T12:13:44.782Z,120
2016-11-29T12:14:45.428Z,120
2016-11-29T12:15:46.112Z,120
2016-11-29T12:16:46.774Z,120
2016-11-29T12:17:47.432Z,120
2016-11-29T12:18:48.088Z,120
2016-11-29T12:19:48.737Z,120
2016-11-29T12:20:49.394Z,120
2016-11-29T12:21:50.040Z,115
2016-11-29T12:22:50.739Z,115
2016-11-29T12:23:51.434Z,115
2016-11-29T12:24:52.108Z,115
2016-11-29T12:25:52.752Z,115
2016-11-29T12:26:53.443Z,115
2016-11-29T12:27:54.119Z,120
2016-11-29T12:28:54.807Z,120
2016-11-29T12:29:55.430Z,120
2016-11-29T12:30:56.059Z,120
2016-11-29T12:31:56.759Z,120
2016-11-29T12:32:57.436Z,120
2016-11-29T12:33:58.097Z,120
2016-11-29T12:34:58.738Z,115
2016-11-29T12:35:59.390Z,115
2016-11-29T12:37:00.058Z,115
2016-11-29T12:38:00.705Z,115
2016-11-29T12:39:01.408Z,115
2016-11-29T12:40:02.050Z,120
2016-11-29T12:41:02.692Z,120
2016-11-29T12:42:03.318Z,120
2016-11-29T12:43:03.942Z,120
2016-11-29T12:44:04.608Z,120
2016-11-29T12:45:05.340Z,115
2016-11-29T12:46:06.056Z,115
2016-11-29T12:47:06.720Z,115
2016-11-29T12:48:07.444Z,115
2016-11-29T12:49:08.121Z,115
2016-11-29T12:50:08.920Z,120
2016-11-29T12:51:09.610Z,115
2016-11-29T12:52:10.305Z,115
2016-11-29T12:53:10.955Z,115
2016-11-29T12:54:11.691Z,115
2016-11-29T12:55:12.295Z,115
2016-11-29T12:56:13.067Z,115
2016-11-29T12:57:13.735Z,115
2016-11-29T12:58:14.468Z,115
2016-11-29T12:59:15.234Z,115
2016-11-29T13:00:15.874Z,115
2016-11-29T13:01:16.549Z,115
2016-11-29T13:02:17.274Z,115
2016-11-29T13:03:17.887Z,115
2016-11-29T13:04:18.551Z,115
2016-11-29T13:05:19.204Z,115
2016-11-29T13:06:19.997Z,115
2016-11-29T13:07:20.783Z,115
2016-11-29T13:08:21.418Z,125
2016-11-29T13:09:22.109Z,125
2016-11-29T13:10:22.780Z,125
2016-11-29T13:11:23.417Z,145
2016-11-29T13:12:24.179Z,180
2016-11-29T13:13:24.925Z,185
2016-11-29T13:14:25.578Z,150
2016-11-29T13:15:26.251Z,120
2016-11-29T13:16:26.949Z,110
2016-11-29T13:17:27.624Z,110
2016-11-29T13:18:28.331Z,105
2016-11-29T13:19:28.928Z,105
2016-11-29T13:20:29.677Z,105
2016-11-29T13:21:30.547Z,105
2016-11-29T13:22:31.213Z,105
2016-11-29T13:23:31.930Z,105
2016-11-29T13:24:32.595Z,100
2016-11-29T13:25:33.261Z,100
2016-11-29T13:26:33.881Z,100
2016-11-29T13:27:34.506Z,100
2016-11-29T13:28:35.145Z,100
2016-11-29T13:29:35.782Z,100
2016-11-29T13:30:36.561Z,95
2016-11-29T13:31:37.183Z,95
2016-11-29T13:32:37.807Z,95
2016-11-29T13:33:38.431Z,95
2016-11-29T13:34:39.144Z,95
2016-11-29T13:35:39.780Z,90
2016-11-29T13:36:40.416Z,90
2016-11-29T13:37:41.170Z,90
2016-11-29T13:38:41.935Z,90
2016-11-29T13:39:42.629Z,90
2016-11-29T13:40:43.455Z,90
2016-11-29T13:41:44.212Z,90
2016-11-29T13:42:44.840Z,85
2016-11-29T13:43:45.579Z,85
2016-11-29T13:44:46.285Z,85
2016-11-29T13:45:46.932Z,85
2016-11-29T13:46:47.619Z,85
2016-11-29T13:47:48.264Z,85
2016-11-29T13:48:48.922Z,85
2016-11-29T13:49:49.641Z,85
2016-11-29T13:50:50.309Z,80
2016-11-29T13:51:50.994Z,80
2016-11-29T13:52:51.648Z,80
2016-11-29T13:53:52.280Z,80
2016-11-29T13:54:53.029Z,80
2016-11-29T13:55:53.816Z,75
2016-11-29T13:56:54.534Z,75
2016-11-29T13:57:55.276Z,75
2016-11-29T13:58:55.889Z,75
2016-11-29T13:59:56.510Z,75
2016-11-29T14:00:57.155Z,70
2016-11-29T14:01:57.784Z,70
2016-11-29T14:02:58.446Z,70
2016-11-29T14:03:59.087Z,70
2016-11-29T14:04:59.771Z,70
2016-11-29T14:06:00.439Z,65
2016-11-29T14:07:01.077Z,65
2016-11-29T14:08:01.860Z,65
2016-11-29T14:09:02.512Z,65
2016-11-29T14:10:03.185Z,65
2016-11-29T14:11:03.943Z,60
2016-11-29T14:12:04.755Z,60
2016-11-29T14:13:05.380Z,60
2016-11-29T14:14:06.021Z,60
2016-11-29T14:15:06.669Z,55
2016-11-29T14:16:07.311Z,55
2016-11-29T14:17:08.057Z,55
2016-11-29T14:18:08.702Z,55
2016-11-29T14:19:09.356Z,55
2016-11-29T14:20:10.016Z,50
2016-11-29T14:21:10.660Z,50
2016-11-29T14:22:11.298Z,50
2016-11-29T14:23:11.942Z,50
2016-11-29T14:24:12.567Z,50
2016-11-29T14:25:13.285Z,45
2016-11-29T14:26:13.949Z,45
2016-11-29T14:27:14.659Z,45
2016-11-29T14:28:15.298Z,45
2016-11-29T14:29:15.937Z,45